sensor_id;sensor_type;location;lat;lon;timestamp;pressure;altitude;pressure_sealevel;temperature;humidity
76753;BME280;65687;51.308;16.916;2023-08-01T00:03:38;98679.62;;;17.42;78.93
76753;BME280;65687;51.308;16.916;2023-08-01T00:08:40;98670.11;;;17.44;78.78
76753;BME280;65687;51.308;16.916;2023-08-01T00:13:42;98669.95;;;17.44;79.33
76753;BME280;65687;51.308;16.916;2023-08-01T00:18:44;98659.36;;;17.45;78.68
76753;BME280;65687;51.308;16.916;2023-08-01T00:23:45;98646.29;;;17.48;78.33
76753;BME280;65687;51.308;16.916;2023-08-01T00:28:47;98640.11;;;17.46;79.60
76753;BME280;65687;51.308;16.916;2023-08-01T00:33:48;98637.65;;;17.43;79.36
76753;BME280;65687;51.308;16.916;2023-08-01T00:38:50;98632.70;;;17.42;79.14
76753;BME280;65687;51.308;16.916;2023-08-01T00:43:51;98622.02;;;17.37;80.29
76753;BME280;65687;51.308;16.916;2023-08-01T00:48:54;98608.56;;;17.29;79.26
76753;BME280;65687;51.308;16.916;2023-08-01T00:54:00;98601.91;;;17.29;78.48
76753;BME280;65687;51.308;16.916;2023-08-01T00:59:02;98596.58;;;17.27;79.28
76753;BME280;65687;51.308;16.916;2023-08-01T01:04:03;98588.36;;;17.25;79.66
76753;BME280;65687;51.308;16.916;2023-08-01T01:09:18;98578.42;;;17.23;79.64
76753;BME280;65687;51.308;16.916;2023-08-01T01:14:20;98569.52;;;17.22;79.76
76753;BME280;65687;51.308;16.916;2023-08-01T01:19:21;98561.44;;;17.18;78.35
76753;BME280;65687;51.308;16.916;2023-08-01T01:24:24;98551.16;;;17.25;77.63
76753;BME280;65687;51.308;16.916;2023-08-01T01:29:27;98543.77;;;17.22;78.52
76753;BME280;65687;51.308;16.916;2023-08-01T01:34:29;98535.17;;;17.19;78.11
76753;BME280;65687;51.308;16.916;2023-08-01T01:39:30;98532.60;;;17.19;78.32
76753;BME280;65687;51.308;16.916;2023-08-01T01:44:31;98526.45;;;17.19;77.75
76753;BME280;65687;51.308;16.916;2023-08-01T01:49:33;98520.13;;;17.17;78.43
76753;BME280;65687;51.308;16.916;2023-08-01T01:54:34;98514.35;;;17.18;78.37
76753;BME280;65687;51.308;16.916;2023-08-01T01:59:36;98513.84;;;17.19;77.96
76753;BME280;65687;51.308;16.916;2023-08-01T02:04:37;98509.79;;;17.21;77.51
76753;BME280;65687;51.308;16.916;2023-08-01T02:09:39;98506.07;;;17.23;76.93
76753;BME280;65687;51.308;16.916;2023-08-01T02:14:41;98500.05;;;17.21;78.31
76753;BME280;65687;51.308;16.916;2023-08-01T02:19:43;98497.37;;;17.14;79.42
76753;BME280;65687;51.308;16.916;2023-08-01T02:24:44;98491.17;;;17.11;79.96
76753;BME280;65687;51.308;16.916;2023-08-01T02:29:46;98488.39;;;17.08;80.22
76753;BME280;65687;51.308;16.916;2023-08-01T02:34:47;98478.14;;;17.06;80.40
76753;BME280;65687;51.308;16.916;2023-08-01T02:39:49;98469.75;;;17.06;79.68
76753;BME280;65687;51.308;16.916;2023-08-01T02:44:50;98460.86;;;17.04;79.40
76753;BME280;65687;51.308;16.916;2023-08-01T02:49:52;98455.92;;;17.04;78.34
76753;BME280;65687;51.308;16.916;2023-08-01T02:54:53;98456.32;;;17.08;77.75
76753;BME280;65687;51.308;16.916;2023-08-01T02:59:55;98449.55;;;17.10;77.08
76753;BME280;65687;51.308;16.916;2023-08-01T03:04:56;98443.42;;;17.12;76.50
76753;BME280;65687;51.308;16.916;2023-08-01T03:09:58;98436.83;;;17.15;76.67
76753;BME280;65687;51.308;16.916;2023-08-01T03:14:59;98430.52;;;17.15;76.65
76753;BME280;65687;51.308;16.916;2023-08-01T03:20:01;98424.69;;;17.14;77.60
76753;BME280;65687;51.308;16.916;2023-08-01T03:25:02;98415.23;;;17.09;78.60
76753;BME280;65687;51.308;16.916;2023-08-01T03:30:08;98412.12;;;17.07;78.50
76753;BME280;65687;51.308;16.916;2023-08-01T03:35:10;98402.19;;;17.05;78.08
76753;BME280;65687;51.308;16.916;2023-08-01T03:40:11;98398.75;;;17.04;77.94
76753;BME280;65687;51.308;16.916;2023-08-01T03:45:13;98390.23;;;17.03;78.91
76753;BME280;65687;51.308;16.916;2023-08-01T03:50:14;98393.18;;;16.95;79.93
76753;BME280;65687;51.308;16.916;2023-08-01T03:55:16;98389.08;;;16.94;79.43
76753;BME280;65687;51.308;16.916;2023-08-01T04:00:18;98389.42;;;16.96;78.49
76753;BME280;65687;51.308;16.916;2023-08-01T04:05:19;98380.40;;;16.97;79.06
76753;BME280;65687;51.308;16.916;2023-08-01T04:10:22;98378.68;;;16.96;79.21
76753;BME280;65687;51.308;16.916;2023-08-01T04:15:23;98382.64;;;16.98;77.82
76753;BME280;65687;51.308;16.916;2023-08-01T04:20:25;98386.81;;;17.02;77.39
76753;BME280;65687;51.308;16.916;2023-08-01T04:25:26;98377.61;;;17.03;77.20
76753;BME280;65687;51.308;16.916;2023-08-01T04:30:28;98372.16;;;17.04;77.04
76753;BME280;65687;51.308;16.916;2023-08-01T04:35:29;98366.02;;;17.04;77.11
76753;BME280;65687;51.308;16.916;2023-08-01T04:40:31;98357.99;;;17.04;76.96
76753;BME280;65687;51.308;16.916;2023-08-01T04:45:32;98348.44;;;17.04;77.14
76753;BME280;65687;51.308;16.916;2023-08-01T04:50:34;98347.24;;;17.04;77.06
76753;BME280;65687;51.308;16.916;2023-08-01T04:55:35;98348.27;;;17.04;77.24
76753;BME280;65687;51.308;16.916;2023-08-01T05:00:37;98347.94;;;17.03;77.57
76753;BME280;65687;51.308;16.916;2023-08-01T05:05:39;98346.90;;;17.02;77.45
76753;BME280;65687;51.308;16.916;2023-08-01T05:10:40;98342.61;;;17.01;77.46
76753;BME280;65687;51.308;16.916;2023-08-01T05:15:45;98339.91;;;17.02;77.53
76753;BME280;65687;51.308;16.916;2023-08-01T05:20:50;98339.71;;;17.01;78.01
76753;BME280;65687;51.308;16.916;2023-08-01T05:25:51;98338.29;;;16.98;78.88
76753;BME280;65687;51.308;16.916;2023-08-01T05:30:53;98338.16;;;16.89;79.68
76753;BME280;65687;51.308;16.916;2023-08-01T05:35:55;98336.48;;;16.80;80.61
76753;BME280;65687;51.308;16.916;2023-08-01T05:40:56;98337.02;;;16.71;81.67
76753;BME280;65687;51.308;16.916;2023-08-01T05:45:58;98331.79;;;16.65;82.16
76753;BME280;65687;51.308;16.916;2023-08-01T05:50:59;98325.54;;;16.59;82.93
76753;BME280;65687;51.308;16.916;2023-08-01T05:56:01;98330.20;;;16.53;83.38
76753;BME280;65687;51.308;16.916;2023-08-01T06:01:03;98331.85;;;16.51;84.02
76753;BME280;65687;51.308;16.916;2023-08-01T06:06:05;98320.71;;;16.47;84.57
76753;BME280;65687;51.308;16.916;2023-08-01T06:11:06;98331.08;;;16.45;85.12
76753;BME280;65687;51.308;16.916;2023-08-01T06:16:08;98317.60;;;16.45;85.56
76753;BME280;65687;51.308;16.916;2023-08-01T06:21:09;98311.98;;;16.45;86.11
76753;BME280;65687;51.308;16.916;2023-08-01T06:26:11;98303.98;;;16.45;86.29
76753;BME280;65687;51.308;16.916;2023-08-01T06:31:13;98303.33;;;16.46;86.36
76753;BME280;65687;51.308;16.916;2023-08-01T06:36:14;98293.97;;;16.47;86.61
76753;BME280;65687;51.308;16.916;2023-08-01T06:41:17;98291.48;;;16.51;86.80
76753;BME280;65687;51.308;16.916;2023-08-01T06:46:19;98285.91;;;16.54;86.75
76753;BME280;65687;51.308;16.916;2023-08-01T06:51:20;98284.40;;;16.56;86.96
76753;BME280;65687;51.308;16.916;2023-08-01T06:56:22;98276.91;;;16.57;87.27
76753;BME280;65687;51.308;16.916;2023-08-01T07:01:24;98272.14;;;16.57;87.36
76753;BME280;65687;51.308;16.916;2023-08-01T07:06:26;98270.64;;;16.60;87.31
76753;BME280;65687;51.308;16.916;2023-08-01T07:11:27;98266.48;;;16.63;87.27
76753;BME280;65687;51.308;16.916;2023-08-01T07:16:29;98264.45;;;16.65;87.35
76753;BME280;65687;51.308;16.916;2023-08-01T07:21:30;98260.09;;;16.69;87.74
76753;BME280;65687;51.308;16.916;2023-08-01T07:26:32;98256.22;;;16.73;87.90
76753;BME280;65687;51.308;16.916;2023-08-01T07:31:33;98253.73;;;16.76;88.12
76753;BME280;65687;51.308;16.916;2023-08-01T07:36:35;98248.11;;;16.77;87.99
76753;BME280;65687;51.308;16.916;2023-08-01T07:41:37;98241.13;;;16.78;87.98
76753;BME280;65687;51.308;16.916;2023-08-01T07:46:38;98238.59;;;16.79;87.98
76753;BME280;65687;51.308;16.916;2023-08-01T07:51:40;98233.85;;;16.82;88.01
76753;BME280;65687;51.308;16.916;2023-08-01T07:56:41;98235.45;;;16.86;88.30
76753;BME280;65687;51.308;16.916;2023-08-01T08:01:45;98230.08;;;16.92;88.64
76753;BME280;65687;51.308;16.916;2023-08-01T08:06:46;98222.30;;;16.97;88.12
76753;BME280;65687;51.308;16.916;2023-08-01T08:11:48;98211.10;;;17.01;87.66
76753;BME280;65687;51.308;16.916;2023-08-01T08:16:51;98197.83;;;17.03;87.57
76753;BME280;65687;51.308;16.916;2023-08-01T08:21:53;98181.65;;;17.06;87.44
76753;BME280;65687;51.308;16.916;2023-08-01T08:26:55;98179.66;;;17.10;87.51
76753;BME280;65687;51.308;16.916;2023-08-01T08:31:56;98173.36;;;17.12;87.41
76753;BME280;65687;51.308;16.916;2023-08-01T08:36:58;98169.13;;;17.14;87.68
76753;BME280;65687;51.308;16.916;2023-08-01T08:41:59;98162.20;;;17.19;87.46
76753;BME280;65687;51.308;16.916;2023-08-01T08:47:03;98159.95;;;17.32;87.46
76753;BME280;65687;51.308;16.916;2023-08-01T08:52:09;98160.50;;;17.51;86.80
76753;BME280;65687;51.308;16.916;2023-08-01T08:57:10;98159.48;;;17.65;86.51
76753;BME280;65687;51.308;16.916;2023-08-01T09:02:12;98157.91;;;17.78;85.80
76753;BME280;65687;51.308;16.916;2023-08-01T09:07:18;98149.80;;;17.88;85.51
76753;BME280;65687;51.308;16.916;2023-08-01T09:12:21;98153.11;;;17.96;84.34
76753;BME280;65687;51.308;16.916;2023-08-01T09:17:23;98148.60;;;18.07;84.38
76753;BME280;65687;51.308;16.916;2023-08-01T09:22:24;98147.89;;;18.26;84.05
76753;BME280;65687;51.308;16.916;2023-08-01T09:27:32;98147.36;;;18.47;83.32
76753;BME280;65687;51.308;16.916;2023-08-01T09:32:34;98142.29;;;18.55;82.81
76753;BME280;65687;51.308;16.916;2023-08-01T09:37:41;98139.60;;;18.60;82.59
76753;BME280;65687;51.308;16.916;2023-08-01T09:42:44;98125.98;;;18.72;81.55
76753;BME280;65687;51.308;16.916;2023-08-01T09:47:46;98117.64;;;18.81;80.56
76753;BME280;65687;51.308;16.916;2023-08-01T09:52:47;98108.23;;;18.79;80.70
76753;BME280;65687;51.308;16.916;2023-08-01T09:57:57;98109.23;;;18.73;80.46
76753;BME280;65687;51.308;16.916;2023-08-01T10:03:00;98096.72;;;18.67;80.21
76753;BME280;65687;51.308;16.916;2023-08-01T10:08:03;98097.20;;;18.62;79.82
76753;BME280;65687;51.308;16.916;2023-08-01T10:13:05;98092.91;;;18.58;79.75
76753;BME280;65687;51.308;16.916;2023-08-01T10:18:08;98089.29;;;18.55;80.27
76753;BME280;65687;51.308;16.916;2023-08-01T10:23:11;98084.65;;;18.55;80.23
76753;BME280;65687;51.308;16.916;2023-08-01T10:28:12;98080.95;;;18.60;80.53
76753;BME280;65687;51.308;16.916;2023-08-01T10:33:14;98077.89;;;18.65;79.70
76753;BME280;65687;51.308;16.916;2023-08-01T10:38:17;98077.94;;;18.72;78.53
76753;BME280;65687;51.308;16.916;2023-08-01T10:43:19;98069.23;;;18.80;77.95
76753;BME280;65687;51.308;16.916;2023-08-01T10:48:22;98064.50;;;18.92;77.32
76753;BME280;65687;51.308;16.916;2023-08-01T10:53:24;98061.61;;;19.02;77.58
76753;BME280;65687;51.308;16.916;2023-08-01T10:58:28;98066.09;;;19.11;77.12
76753;BME280;65687;51.308;16.916;2023-08-01T11:03:37;98068.17;;;19.19;75.99
76753;BME280;65687;51.308;16.916;2023-08-01T11:08:40;98060.96;;;19.21;75.75
76753;BME280;65687;51.308;16.916;2023-08-01T11:13:49;98059.09;;;19.22;76.21
76753;BME280;65687;51.308;16.916;2023-08-01T11:18:52;98060.97;;;19.17;75.76
76753;BME280;65687;51.308;16.916;2023-08-01T11:23:53;98063.86;;;19.09;76.02
76753;BME280;65687;51.308;16.916;2023-08-01T11:28:55;98063.81;;;18.93;77.10
76753;BME280;65687;51.308;16.916;2023-08-01T11:33:57;98050.20;;;18.67;79.29
76753;BME280;65687;51.308;16.916;2023-08-01T11:38:59;98046.84;;;18.49;80.34
76753;BME280;65687;51.308;16.916;2023-08-01T11:44:03;98030.23;;;18.44;80.96
76753;BME280;65687;51.308;16.916;2023-08-01T11:49:06;98031.28;;;18.50;80.77
76753;BME280;65687;51.308;16.916;2023-08-01T11:54:08;98037.67;;;18.57;81.24
76753;BME280;65687;51.308;16.916;2023-08-01T11:59:16;98036.33;;;18.65;81.20
76753;BME280;65687;51.308;16.916;2023-08-01T12:04:28;98025.26;;;18.73;80.54
76753;BME280;65687;51.308;16.916;2023-08-01T12:09:31;98013.82;;;18.81;80.40
76753;BME280;65687;51.308;16.916;2023-08-01T12:14:33;98008.21;;;18.94;79.47
76753;BME280;65687;51.308;16.916;2023-08-01T12:19:35;98008.93;;;19.12;78.58
76753;BME280;65687;51.308;16.916;2023-08-01T12:24:36;97994.41;;;19.30;77.78
76753;BME280;65687;51.308;16.916;2023-08-01T12:29:39;97990.67;;;19.51;77.38
76753;BME280;65687;51.308;16.916;2023-08-01T12:34:40;97994.60;;;19.75;76.78
76753;BME280;65687;51.308;16.916;2023-08-01T12:39:42;97985.50;;;19.88;76.40
76753;BME280;65687;51.308;16.916;2023-08-01T12:44:43;97979.48;;;19.99;75.09
76753;BME280;65687;51.308;16.916;2023-08-01T12:49:45;97988.73;;;20.10;75.16
76753;BME280;65687;51.308;16.916;2023-08-01T12:54:46;97986.62;;;20.23;75.13
76753;BME280;65687;51.308;16.916;2023-08-01T12:59:48;97997.09;;;20.34;71.66
76753;BME280;65687;51.308;16.916;2023-08-01T13:04:49;97991.41;;;20.34;70.19
76753;BME280;65687;51.308;16.916;2023-08-01T13:09:51;97990.39;;;20.35;69.85
76753;BME280;65687;51.308;16.916;2023-08-01T13:14:54;97991.90;;;20.31;69.22
76753;BME280;65687;51.308;16.916;2023-08-01T13:19:55;97982.98;;;20.31;69.87
76753;BME280;65687;51.308;16.916;2023-08-01T13:24:57;97984.02;;;20.32;69.75
76753;BME280;65687;51.308;16.916;2023-08-01T13:29:59;97983.01;;;20.37;69.58
76753;BME280;65687;51.308;16.916;2023-08-01T13:35:00;97976.60;;;20.52;69.17
76753;BME280;65687;51.308;16.916;2023-08-01T13:40:03;97971.89;;;20.67;68.77
76753;BME280;65687;51.308;16.916;2023-08-01T13:45:05;97977.50;;;20.78;68.42
76753;BME280;65687;51.308;16.916;2023-08-01T13:50:07;97974.20;;;20.86;67.82
76753;BME280;65687;51.308;16.916;2023-08-01T13:55:10;97973.93;;;21.01;67.27
76753;BME280;65687;51.308;16.916;2023-08-01T14:00:12;97963.52;;;21.15;65.91
76753;BME280;65687;51.308;16.916;2023-08-01T14:05:14;97974.35;;;21.15;65.47
76753;BME280;65687;51.308;16.916;2023-08-01T14:10:15;97991.04;;;21.11;65.95
76753;BME280;65687;51.308;16.916;2023-08-01T14:15:17;98005.67;;;21.05;65.99
76753;BME280;65687;51.308;16.916;2023-08-01T14:20:18;98018.58;;;20.98;66.63
76753;BME280;65687;51.308;16.916;2023-08-01T14:25:20;98021.54;;;20.89;65.82
76753;BME280;65687;51.308;16.916;2023-08-01T14:30:21;98033.39;;;20.85;64.25
76753;BME280;65687;51.308;16.916;2023-08-01T14:35:23;98039.58;;;20.84;63.34
76753;BME280;65687;51.308;16.916;2023-08-01T14:40:25;98036.32;;;20.83;63.56
76753;BME280;65687;51.308;16.916;2023-08-01T14:45:27;98027.73;;;20.84;63.18
76753;BME280;65687;51.308;16.916;2023-08-01T14:50:28;98023.61;;;20.85;62.76
76753;BME280;65687;51.308;16.916;2023-08-01T14:55:30;98033.39;;;20.86;62.55
76753;BME280;65687;51.308;16.916;2023-08-01T15:00:35;98045.41;;;20.86;62.61
76753;BME280;65687;51.308;16.916;2023-08-01T15:05:37;98046.78;;;20.87;62.71
76753;BME280;65687;51.308;16.916;2023-08-01T15:10:38;98044.55;;;20.86;63.64
76753;BME280;65687;51.308;16.916;2023-08-01T15:15:40;98044.20;;;20.85;65.49
76753;BME280;65687;51.308;16.916;2023-08-01T15:20:42;98049.87;;;20.84;66.08
76753;BME280;65687;51.308;16.916;2023-08-01T15:26:01;98061.05;;;20.82;68.40
76753;BME280;65687;51.308;16.916;2023-08-01T15:31:05;98065.17;;;20.81;68.19
76753;BME280;65687;51.308;16.916;2023-08-01T15:36:07;98065.70;;;20.82;69.18
76753;BME280;65687;51.308;16.916;2023-08-01T15:41:09;98067.77;;;20.74;71.61
76753;BME280;65687;51.308;16.916;2023-08-01T15:46:11;98068.55;;;20.46;73.07
76753;BME280;65687;51.308;16.916;2023-08-01T15:51:12;98078.52;;;20.39;71.32
76753;BME280;65687;51.308;16.916;2023-08-01T15:56:14;98079.88;;;20.44;70.25
76753;BME280;65687;51.308;16.916;2023-08-01T16:01:16;98078.14;;;20.48;69.18
76753;BME280;65687;51.308;16.916;2023-08-01T16:06:17;98078.98;;;20.56;67.44
76753;BME280;65687;51.308;16.916;2023-08-01T16:11:18;98073.81;;;20.65;66.37
76753;BME280;65687;51.308;16.916;2023-08-01T16:16:20;98076.54;;;20.73;66.14
76753;BME280;65687;51.308;16.916;2023-08-01T16:21:21;98082.70;;;20.75;65.98
76753;BME280;65687;51.308;16.916;2023-08-01T16:26:23;98155.98;;;20.71;65.30
76753;BME280;65687;51.308;16.916;2023-08-01T16:31:24;98154.80;;;20.35;67.22
76753;BME280;65687;51.308;16.916;2023-08-01T16:36:26;98144.29;;;19.68;71.81
76753;BME280;65687;51.308;16.916;2023-08-01T16:41:27;98153.50;;;19.01;74.33
76753;BME280;65687;51.308;16.916;2023-08-01T16:46:29;98157.50;;;18.55;75.61
76753;BME280;65687;51.308;16.916;2023-08-01T16:51:30;98143.61;;;18.26;76.65
76753;BME280;65687;51.308;16.916;2023-08-01T16:56:32;98160.28;;;17.94;77.29
76753;BME280;65687;51.308;16.916;2023-08-01T17:01:35;98171.55;;;17.62;78.20
76753;BME280;65687;51.308;16.916;2023-08-01T17:06:36;98175.08;;;17.41;79.15
76753;BME280;65687;51.308;16.916;2023-08-01T17:11:39;98183.23;;;17.23;79.93
76753;BME280;65687;51.308;16.916;2023-08-01T17:16:41;98182.75;;;17.12;80.70
76753;BME280;65687;51.308;16.916;2023-08-01T17:21:42;98173.42;;;17.03;81.15
76753;BME280;65687;51.308;16.916;2023-08-01T17:26:44;98167.56;;;16.98;81.35
76753;BME280;65687;51.308;16.916;2023-08-01T17:31:46;98181.98;;;16.91;81.85
76753;BME280;65687;51.308;16.916;2023-08-01T17:36:47;98173.91;;;16.88;82.49
76753;BME280;65687;51.308;16.916;2023-08-01T17:41:49;98176.10;;;16.85;82.80
76753;BME280;65687;51.308;16.916;2023-08-01T17:46:51;98191.23;;;16.83;83.03
76753;BME280;65687;51.308;16.916;2023-08-01T17:51:52;98197.17;;;16.81;83.56
76753;BME280;65687;51.308;16.916;2023-08-01T17:56:54;98196.14;;;16.80;83.84
76753;BME280;65687;51.308;16.916;2023-08-01T18:01:55;98211.14;;;16.79;84.42
76753;BME280;65687;51.308;16.916;2023-08-01T18:06:57;98215.20;;;16.77;84.89
76753;BME280;65687;51.308;16.916;2023-08-01T18:11:59;98217.77;;;16.77;85.03
76753;BME280;65687;51.308;16.916;2023-08-01T18:17:00;98211.81;;;16.78;85.08
76753;BME280;65687;51.308;16.916;2023-08-01T18:22:02;98222.54;;;16.77;85.22
76753;BME280;65687;51.308;16.916;2023-08-01T18:27:04;98237.84;;;16.75;85.29
76753;BME280;65687;51.308;16.916;2023-08-01T18:32:05;98247.64;;;16.69;85.01
76753;BME280;65687;51.308;16.916;2023-08-01T18:37:07;98262.41;;;16.65;85.06
76753;BME280;65687;51.308;16.916;2023-08-01T18:42:08;98282.63;;;16.62;85.08
76753;BME280;65687;51.308;16.916;2023-08-01T18:47:10;98291.71;;;16.55;85.20
76753;BME280;65687;51.308;16.916;2023-08-01T18:52:11;98293.45;;;16.47;85.43
76753;BME280;65687;51.308;16.916;2023-08-01T18:57:13;98300.15;;;16.40;85.66
76753;BME280;65687;51.308;16.916;2023-08-01T19:02:14;98295.98;;;16.35;85.71
76753;BME280;65687;51.308;16.916;2023-08-01T19:07:16;98294.05;;;16.33;85.54
76753;BME280;65687;51.308;16.916;2023-08-01T19:12:17;98283.92;;;16.19;86.13
76753;BME280;65687;51.308;16.916;2023-08-01T19:17:19;98277.30;;;16.10;86.18
76753;BME280;65687;51.308;16.916;2023-08-01T19:22:21;98284.67;;;16.04;86.31
76753;BME280;65687;51.308;16.916;2023-08-01T19:27:22;98300.79;;;16.00;86.11
76753;BME280;65687;51.308;16.916;2023-08-01T19:32:24;98326.23;;;15.95;86.23
76753;BME280;65687;51.308;16.916;2023-08-01T19:37:25;98335.54;;;15.92;86.34
76753;BME280;65687;51.308;16.916;2023-08-01T19:42:27;98329.30;;;15.87;86.41
76753;BME280;65687;51.308;16.916;2023-08-01T19:47:28;98328.80;;;15.86;86.35
76753;BME280;65687;51.308;16.916;2023-08-01T19:52:31;98335.80;;;15.88;86.53
76753;BME280;65687;51.308;16.916;2023-08-01T19:57:32;98353.02;;;15.90;86.26
76753;BME280;65687;51.308;16.916;2023-08-01T20:02:34;98359.24;;;15.85;86.27
76753;BME280;65687;51.308;16.916;2023-08-01T20:07:40;98358.66;;;15.73;86.50
76753;BME280;65687;51.308;16.916;2023-08-01T20:12:41;98356.98;;;15.59;86.82
76753;BME280;65687;51.308;16.916;2023-08-01T20:17:45;98352.88;;;15.52;87.07
76753;BME280;65687;51.308;16.916;2023-08-01T20:22:47;98342.77;;;15.48;87.32
76753;BME280;65687;51.308;16.916;2023-08-01T20:27:50;98340.44;;;15.43;87.34
76753;BME280;65687;51.308;16.916;2023-08-01T20:32:51;98346.02;;;15.34;87.49
76753;BME280;65687;51.308;16.916;2023-08-01T20:37:53;98350.64;;;15.27;87.85
76753;BME280;65687;51.308;16.916;2023-08-01T20:42:54;98360.24;;;15.23;88.25
76753;BME280;65687;51.308;16.916;2023-08-01T20:47:56;98368.20;;;15.22;88.47
76753;BME280;65687;51.308;16.916;2023-08-01T20:52:58;98375.73;;;15.23;88.75
76753;BME280;65687;51.308;16.916;2023-08-01T20:58:00;98389.60;;;15.20;88.72
76753;BME280;65687;51.308;16.916;2023-08-01T21:03:01;98388.44;;;15.14;89.15
76753;BME280;65687;51.308;16.916;2023-08-01T21:08:04;98382.73;;;15.10;89.59
76753;BME280;65687;51.308;16.916;2023-08-01T21:13:08;98385.59;;;15.08;89.61
76753;BME280;65687;51.308;16.916;2023-08-01T21:18:10;98392.01;;;15.14;89.33
76753;BME280;65687;51.308;16.916;2023-08-01T21:23:11;98393.62;;;15.17;89.17
76753;BME280;65687;51.308;16.916;2023-08-01T21:28:13;98392.80;;;15.12;89.09
76753;BME280;65687;51.308;16.916;2023-08-01T21:33:14;98393.96;;;15.10;89.22
76753;BME280;65687;51.308;16.916;2023-08-01T21:38:16;98389.95;;;15.06;88.92
76753;BME280;65687;51.308;16.916;2023-08-01T21:43:18;98391.56;;;15.03;88.96
76753;BME280;65687;51.308;16.916;2023-08-01T21:48:20;98394.84;;;15.04;88.84
76753;BME280;65687;51.308;16.916;2023-08-01T21:53:22;98398.42;;;15.05;88.54
76753;BME280;65687;51.308;16.916;2023-08-01T21:58:23;98400.85;;;14.99;88.68
76753;BME280;65687;51.308;16.916;2023-08-01T22:03:25;98405.61;;;14.93;88.81
76753;BME280;65687;51.308;16.916;2023-08-01T22:08:27;98407.08;;;14.83;88.83
76753;BME280;65687;51.308;16.916;2023-08-01T22:13:28;98415.77;;;14.71;89.09
76753;BME280;65687;51.308;16.916;2023-08-01T22:18:30;98415.06;;;14.64;89.21
76753;BME280;65687;51.308;16.916;2023-08-01T22:23:32;98422.98;;;14.61;89.04
76753;BME280;65687;51.308;16.916;2023-08-01T22:28:33;98425.55;;;14.55;89.11
76753;BME280;65687;51.308;16.916;2023-08-01T22:33:35;98420.86;;;14.46;89.25
76753;BME280;65687;51.308;16.916;2023-08-01T22:38:36;98421.27;;;14.36;89.58
76753;BME280;65687;51.308;16.916;2023-08-01T22:43:38;98424.34;;;14.31;89.71
76753;BME280;65687;51.308;16.916;2023-08-01T22:48:39;98427.27;;;14.26;89.76
76753;BME280;65687;51.308;16.916;2023-08-01T22:53:44;98433.16;;;14.18;89.83
76753;BME280;65687;51.308;16.916;2023-08-01T22:58:49;98436.27;;;14.14;89.91
76753;BME280;65687;51.308;16.916;2023-08-01T23:03:51;98434.43;;;14.09;89.90
76753;BME280;65687;51.308;16.916;2023-08-01T23:08:52;98437.27;;;14.07;89.94
76753;BME280;65687;51.308;16.916;2023-08-01T23:13:54;98441.68;;;14.07;89.86
76753;BME280;65687;51.308;16.916;2023-08-01T23:18:56;98442.61;;;14.04;90.02
76753;BME280;65687;51.308;16.916;2023-08-01T23:23:57;98446.73;;;14.00;90.08
76753;BME280;65687;51.308;16.916;2023-08-01T23:28:59;98446.98;;;13.97;89.89
76753;BME280;65687;51.308;16.916;2023-08-01T23:34:00;98455.65;;;13.91;89.84
76753;BME280;65687;51.308;16.916;2023-08-01T23:39:02;98458.31;;;13.90;89.84
76753;BME280;65687;51.308;16.916;2023-08-01T23:44:04;98463.23;;;13.84;89.94
76753;BME280;65687;51.308;16.916;2023-08-01T23:49:05;98465.40;;;13.76;90.05
76753;BME280;65687;51.308;16.916;2023-08-01T23:54:07;98477.27;;;13.71;90.20
76753;BME280;65687;51.308;16.916;2023-08-01T23:59:08;98478.48;;;13.72;90.25
